CGCPK CEF4-CYRM
Flight info
| Callsign | CGCPK |
|---|---|
| Flight time | 0h 33m |
| Altitude | 16000 |
| Route | YYC V306 YRM |
| Aircraft | B58T/L-SDFGRY/C |
Departure
| Time | 2026-05-04 15:28 |
|---|---|
| Airport | Airdrie Aerodrome (CEF4) |
Arrival
| Time | 2026-05-04 16:02 |
|---|---|
| Airport | Rocky Mountain House Airport (CYRM) |
| Time | Latitude | Longitude | Altitude | Speed | Heading |
|---|---|---|---|---|---|
| 2026-05-04 15:11 | 51.26806 | -113.93819 | 3648 ft | 0 kts | 165° |
| 2026-05-04 15:22 | 51.26811 | -113.93858 | 3649 ft | 7 kts | 297° |
| 2026-05-04 15:23 | 51.26808 | -113.93925 | 3648 ft | 6 kts | 254° |
| 2026-05-04 15:23 | 51.26794 | -113.93985 | 3647 ft | 7 kts | 248° |
| 2026-05-04 15:23 | 51.26766 | -113.94032 | 3647 ft | 7 kts | 133° |
| 2026-05-04 15:23 | 51.26702 | -113.93924 | 3647 ft | 19 kts | 134° |
| 2026-05-04 15:24 | 51.26521 | -113.93658 | 3648 ft | 19 kts | 138° |
| 2026-05-04 15:24 | 51.26331 | -113.93375 | 3645 ft | 20 kts | 136° |
| 2026-05-04 15:25 | 51.26211 | -113.93198 | 3644 ft | 27 kts | 136° |
| 2026-05-04 15:25 | 51.26073 | -113.92999 | 3645 ft | 24 kts | 136° |
| 2026-05-04 15:25 | 51.25966 | -113.92839 | 3646 ft | 16 kts | 129° |
| 2026-05-04 15:26 | 51.25893 | -113.92745 | 3645 ft | 3 kts | 338° |
| 2026-05-04 15:26 | 51.25900 | -113.92752 | 3645 ft | 0 kts | 316° |
| 2026-05-04 15:28 | 51.26335 | -113.93387 | 3665 ft | 103 kts | 317° |
| 2026-05-04 15:28 | 51.26874 | -113.94315 | 3963 ft | 118 kts | 318° |
| 2026-05-04 15:28 | 51.28040 | -113.96186 | 4885 ft | 110 kts | 317° |
| 2026-05-04 15:29 | 51.28589 | -113.97060 | 5198 ft | 118 kts | 323° |
| 2026-05-04 15:30 | 51.30818 | -114.00836 | 6568 ft | 126 kts | 312° |
| 2026-05-04 15:30 | 51.32580 | -114.04564 | 7084 ft | 146 kts | 312° |
| 2026-05-04 15:31 | 51.33764 | -114.07086 | 7757 ft | 138 kts | 312° |
| 2026-05-04 15:31 | 51.34362 | -114.08267 | 8081 ft | 134 kts | 317° |
| 2026-05-04 15:32 | 51.36447 | -114.11140 | 9034 ft | 131 kts | 327° |
| 2026-05-04 15:32 | 51.37978 | -114.12702 | 9665 ft | 130 kts | 332° |
| 2026-05-04 15:33 | 51.39566 | -114.14093 | 10293 ft | 130 kts | 332° |
| 2026-05-04 15:34 | 51.41905 | -114.16274 | 11200 ft | 131 kts | 330° |
| 2026-05-04 15:34 | 51.42688 | -114.17022 | 11489 ft | 131 kts | 330° |
| 2026-05-04 15:34 | 51.44270 | -114.18491 | 12108 ft | 132 kts | 330° |
| 2026-05-04 15:35 | 51.45864 | -114.19958 | 12739 ft | 132 kts | 330° |
| 2026-05-04 15:35 | 51.46656 | -114.20701 | 13051 ft | 132 kts | 330° |
| 2026-05-04 15:35 | 51.47447 | -114.21441 | 13358 ft | 132 kts | 329° |
| 2026-05-04 15:36 | 51.49029 | -114.22922 | 13977 ft | 132 kts | 329° |
| 2026-05-04 15:36 | 51.49782 | -114.23749 | 14244 ft | 133 kts | 315° |
| 2026-05-04 15:36 | 51.50528 | -114.24529 | 14488 ft | 134 kts | 348° |
| 2026-05-04 15:37 | 51.51445 | -114.24761 | 14773 ft | 132 kts | 342° |
| 2026-05-04 15:37 | 51.52317 | -114.25184 | 15058 ft | 130 kts | 338° |
| 2026-05-04 15:37 | 51.53160 | -114.25710 | 15347 ft | 130 kts | 335° |
| 2026-05-04 15:37 | 51.53985 | -114.26297 | 15635 ft | 129 kts | 334° |
| 2026-05-04 15:38 | 51.54825 | -114.26922 | 15807 ft | 135 kts | 333° |
| 2026-05-04 15:38 | 51.55699 | -114.27595 | 15925 ft | 144 kts | 332° |
| 2026-05-04 15:38 | 51.56621 | -114.28357 | 15974 ft | 153 kts | 331° |
| 2026-05-04 15:38 | 51.57585 | -114.29194 | 15997 ft | 161 kts | 330° |
| 2026-05-04 15:39 | 51.58561 | -114.30073 | 16002 ft | 160 kts | 330° |
| 2026-05-04 15:39 | 51.59525 | -114.30958 | 15998 ft | 159 kts | 330° |
| 2026-05-04 15:39 | 51.61444 | -114.32700 | 16005 ft | 158 kts | 330° |
| 2026-05-04 15:40 | 51.62405 | -114.33559 | 16007 ft | 158 kts | 330° |
| 2026-05-04 15:40 | 51.63356 | -114.34412 | 16009 ft | 158 kts | 330° |
| 2026-05-04 15:40 | 51.64317 | -114.35282 | 16010 ft | 159 kts | 330° |
| 2026-05-04 15:40 | 51.65269 | -114.36177 | 16006 ft | 158 kts | 328° |
| 2026-05-04 15:41 | 51.66202 | -114.37116 | 16009 ft | 158 kts | 328° |
| 2026-05-04 15:41 | 51.67126 | -114.38073 | 16010 ft | 158 kts | 327° |
| 2026-05-04 15:41 | 51.68048 | -114.39043 | 16008 ft | 158 kts | 327° |
| 2026-05-04 15:41 | 51.68963 | -114.40019 | 16007 ft | 158 kts | 327° |
| 2026-05-04 15:42 | 51.69876 | -114.40996 | 16012 ft | 158 kts | 327° |
| 2026-05-04 15:42 | 51.70792 | -114.41978 | 16013 ft | 158 kts | 327° |
| 2026-05-04 15:42 | 51.71708 | -114.42962 | 16012 ft | 158 kts | 327° |
| 2026-05-04 15:42 | 51.72608 | -114.43944 | 16011 ft | 159 kts | 327° |
| 2026-05-04 15:43 | 51.73517 | -114.44956 | 16005 ft | 159 kts | 326° |
| 2026-05-04 15:43 | 51.74424 | -114.45973 | 16007 ft | 158 kts | 326° |
| 2026-05-04 15:43 | 51.75329 | -114.46991 | 16009 ft | 158 kts | 326° |
| 2026-05-04 15:43 | 51.76232 | -114.48010 | 16003 ft | 158 kts | 326° |
| 2026-05-04 15:44 | 51.77136 | -114.49029 | 16005 ft | 158 kts | 326° |
| 2026-05-04 15:44 | 51.78040 | -114.50049 | 16005 ft | 159 kts | 326° |
| 2026-05-04 15:44 | 51.78947 | -114.51070 | 16005 ft | 159 kts | 326° |
| 2026-05-04 15:44 | 51.79854 | -114.52093 | 16003 ft | 159 kts | 326° |
| 2026-05-04 15:45 | 51.80762 | -114.53115 | 16004 ft | 159 kts | 326° |
| 2026-05-04 15:45 | 51.81658 | -114.54122 | 16004 ft | 159 kts | 326° |
| 2026-05-04 15:45 | 51.82565 | -114.55144 | 16004 ft | 159 kts | 326° |
| 2026-05-04 15:45 | 51.83469 | -114.56164 | 16004 ft | 158 kts | 326° |
| 2026-05-04 15:46 | 51.84374 | -114.57184 | 15999 ft | 158 kts | 326° |
| 2026-05-04 15:46 | 51.85303 | -114.58137 | 16000 ft | 158 kts | 332° |
| 2026-05-04 15:46 | 51.86303 | -114.58915 | 16003 ft | 159 kts | 334° |
| 2026-05-04 15:46 | 51.87324 | -114.59626 | 15948 ft | 162 kts | 335° |
| 2026-05-04 15:47 | 51.88387 | -114.60337 | 15761 ft | 168 kts | 336° |
| 2026-05-04 15:47 | 51.89475 | -114.61055 | 15502 ft | 170 kts | 336° |
| 2026-05-04 15:47 | 51.90563 | -114.61774 | 15255 ft | 171 kts | 336° |
| 2026-05-04 15:47 | 51.91671 | -114.62506 | 15012 ft | 172 kts | 336° |
| 2026-05-04 15:48 | 51.92782 | -114.63241 | 14766 ft | 173 kts | 336° |
| 2026-05-04 15:48 | 51.93912 | -114.63928 | 14511 ft | 173 kts | 339° |
| 2026-05-04 15:48 | 51.96216 | -114.65105 | 14034 ft | 174 kts | 341° |
| 2026-05-04 15:49 | 51.97376 | -114.65667 | 13788 ft | 174 kts | 341° |
| 2026-05-04 15:49 | 51.98540 | -114.66227 | 13520 ft | 174 kts | 341° |
| 2026-05-04 15:49 | 51.99700 | -114.66784 | 13259 ft | 174 kts | 341° |
| 2026-05-04 15:49 | 52.00858 | -114.67339 | 13010 ft | 173 kts | 341° |
| 2026-05-04 15:50 | 52.02020 | -114.67865 | 12752 ft | 173 kts | 343° |
| 2026-05-04 15:50 | 52.03177 | -114.68310 | 12496 ft | 173 kts | 345° |
| 2026-05-04 15:50 | 52.04351 | -114.68721 | 12235 ft | 173 kts | 346° |
| 2026-05-04 15:50 | 52.05537 | -114.69064 | 11994 ft | 173 kts | 347° |
| 2026-05-04 15:51 | 52.06722 | -114.69371 | 11754 ft | 172 kts | 348° |
| 2026-05-04 15:51 | 52.07907 | -114.69660 | 11509 ft | 172 kts | 348° |
| 2026-05-04 15:51 | 52.09091 | -114.69944 | 11263 ft | 172 kts | 348° |
| 2026-05-04 15:51 | 52.10271 | -114.70225 | 11030 ft | 169 kts | 348° |
| 2026-05-04 15:52 | 52.11416 | -114.70496 | 10768 ft | 163 kts | 348° |
| 2026-05-04 15:52 | 52.12531 | -114.70756 | 10491 ft | 160 kts | 348° |
| 2026-05-04 15:52 | 52.13625 | -114.71008 | 10218 ft | 158 kts | 348° |
| 2026-05-04 15:52 | 52.14700 | -114.71258 | 9948 ft | 157 kts | 348° |
| 2026-05-04 15:53 | 52.15780 | -114.71512 | 9650 ft | 156 kts | 349° |
| 2026-05-04 15:53 | 52.16854 | -114.71769 | 9368 ft | 156 kts | 349° |
| 2026-05-04 15:53 | 52.17923 | -114.72027 | 9087 ft | 155 kts | 349° |
| 2026-05-04 15:53 | 52.18989 | -114.72290 | 8804 ft | 154 kts | 348° |
| 2026-05-04 15:54 | 52.20030 | -114.72543 | 8575 ft | 147 kts | 348° |
| 2026-05-04 15:54 | 52.21020 | -114.72781 | 8467 ft | 142 kts | 349° |
| 2026-05-04 15:54 | 52.21984 | -114.73019 | 8426 ft | 138 kts | 348° |
| 2026-05-04 15:54 | 52.22925 | -114.73251 | 8397 ft | 135 kts | 348° |
| 2026-05-04 15:55 | 52.23843 | -114.73477 | 8388 ft | 132 kts | 348° |
| 2026-05-04 15:55 | 52.24747 | -114.73691 | 8375 ft | 129 kts | 349° |
| 2026-05-04 15:55 | 52.25634 | -114.73983 | 8170 ft | 132 kts | 343° |
| 2026-05-04 15:55 | 52.26484 | -114.74448 | 7898 ft | 126 kts | 338° |
| 2026-05-04 15:56 | 52.27286 | -114.74982 | 7549 ft | 127 kts | 337° |
| 2026-05-04 15:56 | 52.28090 | -114.75572 | 7209 ft | 127 kts | 335° |
| 2026-05-04 15:56 | 52.28881 | -114.76203 | 6882 ft | 126 kts | 334° |
| 2026-05-04 15:56 | 52.29663 | -114.76875 | 6549 ft | 128 kts | 333° |
| 2026-05-04 15:57 | 52.30442 | -114.77598 | 6207 ft | 128 kts | 331° |
| 2026-05-04 15:57 | 52.31209 | -114.78323 | 5895 ft | 127 kts | 330° |
| 2026-05-04 15:57 | 52.31946 | -114.79090 | 5646 ft | 125 kts | 329° |
| 2026-05-04 15:57 | 52.32691 | -114.79815 | 5393 ft | 124 kts | 330° |
| 2026-05-04 15:58 | 52.33434 | -114.80567 | 5090 ft | 126 kts | 330° |
| 2026-05-04 15:58 | 52.34191 | -114.81255 | 4868 ft | 122 kts | 331° |
| 2026-05-04 15:58 | 52.34907 | -114.81935 | 4720 ft | 115 kts | 328° |
| 2026-05-04 15:58 | 52.35577 | -114.82630 | 4561 ft | 113 kts | 327° |
| 2026-05-04 15:59 | 52.36236 | -114.83328 | 4470 ft | 115 kts | 328° |
| 2026-05-04 15:59 | 52.36682 | -114.83815 | 4436 ft | 116 kts | 327° |
| 2026-05-04 15:59 | 52.37355 | -114.84524 | 4403 ft | 115 kts | 328° |
| 2026-05-04 15:59 | 52.38187 | -114.85387 | 4229 ft | 98 kts | 328° |
| 2026-05-04 16:00 | 52.38753 | -114.85985 | 4103 ft | 95 kts | 329° |
| 2026-05-04 16:00 | 52.39321 | -114.86559 | 3987 ft | 98 kts | 328° |
| 2026-05-04 16:00 | 52.39704 | -114.86964 | 3893 ft | 97 kts | 329° |
| 2026-05-04 16:00 | 52.40257 | -114.87562 | 3751 ft | 95 kts | 329° |
| 2026-05-04 16:01 | 52.40800 | -114.88138 | 3644 ft | 91 kts | 330° |
| 2026-05-04 16:01 | 52.41337 | -114.88715 | 3514 ft | 94 kts | 331° |
| 2026-05-04 16:01 | 52.41894 | -114.89293 | 3377 ft | 96 kts | 330° |
| 2026-05-04 16:01 | 52.42448 | -114.89883 | 3265 ft | 92 kts | 329° |
| 2026-05-04 16:02 | 52.42887 | -114.90346 | 3245 ft | 56 kts | 327° |
| 2026-05-04 16:02 | 52.43077 | -114.90544 | 3246 ft | 17 kts | 328° |
| 2026-05-04 16:02 | 52.43083 | -114.90753 | 3246 ft | 11 kts | 234° |
| 2026-05-04 16:03 | 52.43062 | -114.90761 | 3245 ft | 0 kts | 157° |